Malatya/Erhac, Turkey
Current Conditions -  °F | °C
As of 5:20 PM on Friday 24 Oct 2014 (Local Time) from LTAT Reporting Station
Broken Clouds Broken Clouds  
Wind Chill: 63°   Ceiling: 10000
Heat Index: 63°   Visibility: 6mi
Dew Point: 46°   Wind: 2mph
Humidity: 55%   Direction: 220°SW
Pressure: 30.06"   Gusts: NA
Location:  38.43°N, 38.08°E
Report Text: LTAT 241420Z 22002KT 9999 FEW040 BKN100 17/08 Q1018 NOSIG
Loading
Personal Weather Stations






























Interactive Weather Map
Tropical Storm Tracking
New forecast layout! Learn more

10-Day Weather Forecast

Advertisements
Track Severe Weather on mobile